sensor_id;sensor_type;location;lat;lon;timestamp;pressure;altitude;pressure_sealevel;temperature;humidity
80648;BME280;70012;0.000;0.000;2024-03-02T00:00:51;99219.38;;;6.70;71.39
80648;BME280;70012;0.000;0.000;2024-03-02T00:03:19;99211.22;;;6.70;71.21
80648;BME280;70012;0.000;0.000;2024-03-02T00:05:50;99212.03;;;6.71;70.89
80648;BME280;70012;0.000;0.000;2024-03-02T00:08:23;99211.75;;;6.72;71.14
80648;BME280;70012;0.000;0.000;2024-03-02T00:10:52;99217.19;;;6.72;71.07
80648;BME280;70012;0.000;0.000;2024-03-02T00:13:23;99207.41;;;6.71;71.15
80648;BME280;70012;0.000;0.000;2024-03-02T00:15:55;99205.25;;;6.73;71.37
80648;BME280;70012;0.000;0.000;2024-03-02T00:18:27;99201.44;;;6.75;71.17
80648;BME280;70012;0.000;0.000;2024-03-02T00:20:57;99196.84;;;6.75;71.22
80648;BME280;70012;0.000;0.000;2024-03-02T00:23:27;99196.59;;;6.77;71.00
80648;BME280;70012;0.000;0.000;2024-03-02T00:25:56;99187.59;;;6.76;71.23
80648;BME280;70012;0.000;0.000;2024-03-02T00:28:25;99188.41;;;6.77;71.03
80648;BME280;70012;0.000;0.000;2024-03-02T00:30:56;99180.25;;;6.77;71.22
80648;BME280;70012;0.000;0.000;2024-03-02T00:33:26;99174.25;;;6.75;71.04
80648;BME280;70012;0.000;0.000;2024-03-02T00:35:53;99176.97;;;6.75;70.97
80648;BME280;70012;0.000;0.000;2024-03-02T00:38:20;99182.41;;;6.75;71.18
80648;BME280;70012;0.000;0.000;2024-03-02T00:40:47;99177.00;;;6.80;70.87
80648;BME280;70012;0.000;0.000;2024-03-02T00:45:56;99182.44;;;6.80;70.81
80648;BME280;70012;0.000;0.000;2024-03-02T00:48:23;99182.44;;;6.80;70.70
80648;BME280;70012;0.000;0.000;2024-03-02T00:50:52;99187.91;;;6.80;70.66
80648;BME280;70012;0.000;0.000;2024-03-02T00:53:23;99186.28;;;6.79;70.70
80648;BME280;70012;0.000;0.000;2024-03-02T00:55:54;99180.84;;;6.79;70.63
80648;BME280;70012;0.000;0.000;2024-03-02T00:58:20;99177.53;;;6.77;70.46
80648;BME280;70012;0.000;0.000;2024-03-02T01:00:47;99179.72;;;6.80;70.25
80648;BME280;70012;0.000;0.000;2024-03-02T01:03:14;99179.19;;;6.78;70.33
80648;BME280;70012;0.000;0.000;2024-03-02T01:05:44;99180.84;;;6.79;70.22
80648;BME280;70012;0.000;0.000;2024-03-02T01:08:11;99180.25;;;6.77;70.32
80648;BME280;70012;0.000;0.000;2024-03-02T01:10:38;99184.63;;;6.78;70.28
80648;BME280;70012;0.000;0.000;2024-03-02T01:13:11;99180.00;;;6.78;70.23
80648;BME280;70012;0.000;0.000;2024-03-02T01:15:38;99184.63;;;6.78;70.33
80648;BME280;70012;0.000;0.000;2024-03-02T01:18:05;99172.09;;;6.77;70.18
80648;BME280;70012;0.000;0.000;2024-03-02T01:20:31;99173.75;;;6.78;70.24
80648;BME280;70012;0.000;0.000;2024-03-02T01:22:58;99178.34;;;6.77;70.18
80648;BME280;70012;0.000;0.000;2024-03-02T01:25:25;99175.91;;;6.76;70.16
80648;BME280;70012;0.000;0.000;2024-03-02T01:27:51;99174.25;;;6.75;70.49
80648;BME280;70012;0.000;0.000;2024-03-02T01:30:18;99173.66;;;6.72;70.35
80648;BME280;70012;0.000;0.000;2024-03-02T01:32:45;99176.91;;;6.69;70.34
80648;BME280;70012;0.000;0.000;2024-03-02T01:35:12;99164.72;;;6.72;70.51
80648;BME280;70012;0.000;0.000;2024-03-02T01:37:39;99170.94;;;6.72;70.48
80648;BME280;70012;0.000;0.000;2024-03-02T01:40:06;99166.03;;;6.69;70.65
80648;BME280;70012;0.000;0.000;2024-03-02T01:42:37;99171.19;;;6.66;70.66
80648;BME280;70012;0.000;0.000;2024-03-02T01:45:07;99154.03;;;6.65;70.72
80648;BME280;70012;0.000;0.000;2024-03-02T01:47:35;99159.50;;;6.65;70.90
80648;BME280;70012;0.000;0.000;2024-03-02T01:50:02;99154.03;;;6.65;70.88
80648;BME280;70012;0.000;0.000;2024-03-02T01:52:28;99155.94;;;6.65;71.13
80648;BME280;70012;0.000;0.000;2024-03-02T01:54:56;99155.94;;;6.65;71.07
80648;BME280;70012;0.000;0.000;2024-03-02T01:57:23;99152.94;;;6.66;70.79
80648;BME280;70012;0.000;0.000;2024-03-02T01:59:49;99153.50;;;6.68;70.70
80648;BME280;70012;0.000;0.000;2024-03-02T02:02:17;99153.03;;;6.71;70.52
80648;BME280;70012;0.000;0.000;2024-03-02T02:04:45;99153.81;;;6.72;70.35
80648;BME280;70012;0.000;0.000;2024-03-02T02:07:12;99150.03;;;6.73;70.31
80648;BME280;70012;0.000;0.000;2024-03-02T02:09:41;99150.28;;;6.71;70.43
80648;BME280;70012;0.000;0.000;2024-03-02T02:12:11;99141.31;;;6.71;70.51
80648;BME280;70012;0.000;0.000;2024-03-02T02:14:38;99142.13;;;6.71;70.41
80648;BME280;70012;0.000;0.000;2024-03-02T02:17:06;99135.06;;;6.70;70.58
80648;BME280;70012;0.000;0.000;2024-03-02T02:19:33;99140.50;;;6.70;70.53
80648;BME280;70012;0.000;0.000;2024-03-02T02:22:00;99135.06;;;6.70;70.16
80648;BME280;70012;0.000;0.000;2024-03-02T02:24:27;99136.13;;;6.69;70.37
80648;BME280;70012;0.000;0.000;2024-03-02T02:26:53;99130.94;;;6.68;70.40
80648;BME280;70012;0.000;0.000;2024-03-02T02:29:20;99137.19;;;6.68;70.44
80648;BME280;70012;0.000;0.000;2024-03-02T02:31:47;99134.47;;;6.68;70.15
80648;BME280;70012;0.000;0.000;2024-03-02T02:34:14;99133.41;;;6.69;70.25
80648;BME280;70012;0.000;0.000;2024-03-02T02:36:41;99138.56;;;6.71;70.47
80648;BME280;70012;0.000;0.000;2024-03-02T02:39:15;99136.44;;;6.73;70.03
80648;BME280;70012;0.000;0.000;2024-03-02T02:41:44;99129.91;;;6.74;70.23
80648;BME280;70012;0.000;0.000;2024-03-02T02:44:14;99127.44;;;6.72;70.02
80648;BME280;70012;0.000;0.000;2024-03-02T02:46:41;99129.63;;;6.70;69.98
80648;BME280;70012;0.000;0.000;2024-03-02T02:49:07;99133.97;;;6.71;70.10
80648;BME280;70012;0.000;0.000;2024-03-02T02:51:34;99132.31;;;6.70;70.18
80648;BME280;70012;0.000;0.000;2024-03-02T02:54:01;99130.69;;;6.69;70.35
80648;BME280;70012;0.000;0.000;2024-03-02T02:56:28;99135.06;;;6.70;70.31
80648;BME280;70012;0.000;0.000;2024-03-02T02:58:55;99142.63;;;6.68;70.30
80648;BME280;70012;0.000;0.000;2024-03-02T03:01:21;99124.94;;;6.66;70.44
80648;BME280;70012;0.000;0.000;2024-03-02T03:03:48;99128.22;;;6.68;70.52
80648;BME280;70012;0.000;0.000;2024-03-02T03:06:15;99128.47;;;6.66;70.61
80648;BME280;70012;0.000;0.000;2024-03-02T03:08:42;99126.00;;;6.65;70.62
80648;BME280;70012;0.000;0.000;2024-03-02T03:11:09;99124.94;;;6.66;70.66
80648;BME280;70012;0.000;0.000;2024-03-02T03:13:35;99127.66;;;6.66;70.57
80648;BME280;70012;0.000;0.000;2024-03-02T03:16:02;99132.28;;;6.65;70.67
80648;BME280;70012;0.000;0.000;2024-03-02T03:18:30;99125.19;;;6.64;70.90
80648;BME280;70012;0.000;0.000;2024-03-02T03:20:57;99128.16;;;6.63;70.66
80648;BME280;70012;0.000;0.000;2024-03-02T03:23:24;99129.50;;;6.60;70.94
80648;BME280;70012;0.000;0.000;2024-03-02T03:25:52;99134.94;;;6.60;70.71
80648;BME280;70012;0.000;0.000;2024-03-02T03:28:19;99137.91;;;6.59;70.80
80648;BME280;70012;0.000;0.000;2024-03-02T03:30:46;99143.06;;;6.55;70.80
80648;BME280;70012;0.000;0.000;2024-03-02T03:33:13;99141.41;;;6.54;70.84
80648;BME280;70012;0.000;0.000;2024-03-02T03:35:40;99136.81;;;6.54;70.90
80648;BME280;70012;0.000;0.000;2024-03-02T03:38:07;99152.28;;;6.54;70.91
80648;BME280;70012;0.000;0.000;2024-03-02T03:40:33;99145.19;;;6.53;71.10
80648;BME280;70012;0.000;0.000;2024-03-02T03:43:00;99146.28;;;6.52;71.16
80648;BME280;70012;0.000;0.000;2024-03-02T03:45:28;99140.28;;;6.50;71.29
80648;BME280;70012;0.000;0.000;2024-03-02T03:47:57;99140.22;;;6.45;71.33
80648;BME280;70012;0.000;0.000;2024-03-02T03:50:24;99139.66;;;6.43;71.32
80648;BME280;70012;0.000;0.000;2024-03-02T03:52:50;99145.59;;;6.39;71.55
80648;BME280;70012;0.000;0.000;2024-03-02T03:55:17;99145.50;;;6.29;72.02
80648;BME280;70012;0.000;0.000;2024-03-02T03:57:44;99148.97;;;6.24;71.94
80648;BME280;70012;0.000;0.000;2024-03-02T04:00:11;99150.00;;;6.18;72.20
80648;BME280;70012;0.000;0.000;2024-03-02T04:02:38;99140.94;;;6.13;72.26
80648;BME280;70012;0.000;0.000;2024-03-02T04:05:05;99158.25;;;6.06;72.62
80648;BME280;70012;0.000;0.000;2024-03-02T04:07:38;99159.75;;;5.97;72.78
80648;BME280;70012;0.000;0.000;2024-03-02T04:10:08;99159.94;;;5.90;72.71
80648;BME280;70012;0.000;0.000;2024-03-02T04:12:38;99153.53;;;5.80;73.17
80648;BME280;70012;0.000;0.000;2024-03-02T04:15:06;99156.19;;;5.74;73.35
80648;BME280;70012;0.000;0.000;2024-03-02T04:17:33;99161.72;;;5.63;73.80
80648;BME280;70012;0.000;0.000;2024-03-02T04:20:01;99159.19;;;5.56;73.71
80648;BME280;70012;0.000;0.000;2024-03-02T04:22:28;99160.78;;;5.52;73.97
80648;BME280;70012;0.000;0.000;2024-03-02T04:24:54;99160.69;;;5.47;74.52
80648;BME280;70012;0.000;0.000;2024-03-02T04:27:21;99171.53;;;5.47;74.38
80648;BME280;70012;0.000;0.000;2024-03-02T04:29:48;99174.25;;;5.47;74.45
80648;BME280;70012;0.000;0.000;2024-03-02T04:32:15;99177.47;;;5.43;74.58
80648;BME280;70012;0.000;0.000;2024-03-02T04:34:42;99171.47;;;5.41;74.80
80648;BME280;70012;0.000;0.000;2024-03-02T04:37:12;99178.81;;;5.41;74.80
80648;BME280;70012;0.000;0.000;2024-03-02T04:39:39;99161.69;;;5.40;74.73
80648;BME280;70012;0.000;0.000;2024-03-02T04:42:06;99175.25;;;5.40;74.79
80648;BME280;70012;0.000;0.000;2024-03-02T04:44:33;99177.47;;;5.43;74.74
80648;BME280;70012;0.000;0.000;2024-03-02T04:46:59;99175.84;;;5.42;74.78
80648;BME280;70012;0.000;0.000;2024-03-02T04:49:26;99174.19;;;5.41;74.61
80648;BME280;70012;0.000;0.000;2024-03-02T04:51:53;99183.41;;;5.40;74.65
80648;BME280;70012;0.000;0.000;2024-03-02T04:54:20;99188.50;;;5.37;74.48
80648;BME280;70012;0.000;0.000;2024-03-02T04:56:47;99202.00;;;5.32;74.30
80648;BME280;70012;0.000;0.000;2024-03-02T04:59:17;99201.19;;;5.31;74.67
80648;BME280;70012;0.000;0.000;2024-03-02T05:01:45;99197.88;;;5.29;74.85
80648;BME280;70012;0.000;0.000;2024-03-02T05:04:12;99205.44;;;5.27;74.69
80648;BME280;70012;0.000;0.000;2024-03-02T05:06:40;99205.44;;;5.27;74.89
80648;BME280;70012;0.000;0.000;2024-03-02T05:09:10;99207.59;;;5.25;74.62
80648;BME280;70012;0.000;0.000;2024-03-02T05:11:40;99207.59;;;5.25;74.79
80648;BME280;70012;0.000;0.000;2024-03-02T05:14:07;99207.50;;;5.20;74.99
80648;BME280;70012;0.000;0.000;2024-03-02T05:16:35;99206.94;;;5.18;75.40
80648;BME280;70012;0.000;0.000;2024-03-02T05:19:03;99199.59;;;5.18;75.47
80648;BME280;70012;0.000;0.000;2024-03-02T05:21:30;99190.66;;;5.18;75.84
80648;BME280;70012;0.000;0.000;2024-03-02T05:23:56;99192.28;;;5.19;75.56
80648;BME280;70012;0.000;0.000;2024-03-02T05:26:23;99194.97;;;5.19;75.31
80648;BME280;70012;0.000;0.000;2024-03-02T05:28:50;99199.34;;;5.20;75.40
80648;BME280;70012;0.000;0.000;2024-03-02T05:31:16;99204.78;;;5.20;75.26
80648;BME280;70012;0.000;0.000;2024-03-02T05:33:43;99202.66;;;5.22;75.00
80648;BME280;70012;0.000;0.000;2024-03-02T05:38:47;99200.41;;;5.19;74.74
80648;BME280;70012;0.000;0.000;2024-03-02T05:41:14;99196.06;;;5.18;74.95
80648;BME280;70012;0.000;0.000;2024-03-02T05:43:41;99207.50;;;5.20;74.81
80648;BME280;70012;0.000;0.000;2024-03-02T05:46:08;99198.78;;;5.18;75.14
80648;BME280;70012;0.000;0.000;2024-03-02T05:48:34;99206.94;;;5.18;74.83
80648;BME280;70012;0.000;0.000;2024-03-02T05:51:01;99197.41;;;5.15;74.92
80648;BME280;70012;0.000;0.000;2024-03-02T05:53:29;99196.06;;;5.18;75.27
80648;BME280;70012;0.000;0.000;2024-03-02T05:55:55;99196.41;;;5.21;75.14
80648;BME280;70012;0.000;0.000;2024-03-02T05:58:22;99195.09;;;5.24;75.17
80648;BME280;70012;0.000;0.000;2024-03-02T06:01:08;99202.16;;;5.25;74.73
80648;BME280;70012;0.000;0.000;2024-03-02T06:03:35;99196.22;;;5.28;74.93
80648;BME280;70012;0.000;0.000;2024-03-02T06:06:02;99194.66;;;5.32;74.99
80648;BME280;70012;0.000;0.000;2024-03-02T06:08:29;99197.69;;;5.36;74.75
80648;BME280;70012;0.000;0.000;2024-03-02T06:10:56;99198.03;;;5.39;74.52
80648;BME280;70012;0.000;0.000;2024-03-02T06:13:25;99201.66;;;5.45;74.69
80648;BME280;70012;0.000;0.000;2024-03-02T06:15:53;99195.50;;;5.50;74.56
80648;BME280;70012;0.000;0.000;2024-03-02T06:18:20;99206.34;;;5.50;74.28
80648;BME280;70012;0.000;0.000;2024-03-02T06:20:46;99206.94;;;5.52;74.35
80648;BME280;70012;0.000;0.000;2024-03-02T06:23:13;99211.53;;;5.51;74.29
80648;BME280;70012;0.000;0.000;2024-03-02T06:25:41;99212.38;;;5.52;74.09
80648;BME280;70012;0.000;0.000;2024-03-02T06:28:09;99206.81;;;5.47;74.53
80648;BME280;70012;0.000;0.000;2024-03-02T06:30:36;99211.19;;;5.48;74.33
80648;BME280;70012;0.000;0.000;2024-03-02T06:33:03;99213.31;;;5.45;74.66
80648;BME280;70012;0.000;0.000;2024-03-02T06:35:30;99223.84;;;5.42;74.47
80648;BME280;70012;0.000;0.000;2024-03-02T06:37:57;99219.75;;;5.39;74.83
80648;BME280;70012;0.000;0.000;2024-03-02T06:40:24;99217.53;;;5.36;74.63
80648;BME280;70012;0.000;0.000;2024-03-02T06:42:51;99224.63;;;5.37;74.76
80648;BME280;70012;0.000;0.000;2024-03-02T06:45:18;99226.75;;;5.35;74.97
80648;BME280;70012;0.000;0.000;2024-03-02T06:47:45;99222.38;;;5.34;74.64
80648;BME280;70012;0.000;0.000;2024-03-02T06:50:12;99225.03;;;5.29;74.99
80648;BME280;70012;0.000;0.000;2024-03-02T06:52:39;99228.31;;;5.31;75.10
80648;BME280;70012;0.000;0.000;2024-03-02T06:55:06;99229.94;;;5.32;74.79
80648;BME280;70012;0.000;0.000;2024-03-02T06:57:33;99230.69;;;5.27;74.82
80648;BME280;70012;0.000;0.000;2024-03-02T07:00:00;99242.94;;;5.30;75.00
80648;BME280;70012;0.000;0.000;2024-03-02T07:02:27;99239.19;;;5.31;75.16
80648;BME280;70012;0.000;0.000;2024-03-02T07:04:54;99239.19;;;5.31;75.25
80648;BME280;70012;0.000;0.000;2024-03-02T07:07:20;99248.94;;;5.32;75.35
80648;BME280;70012;0.000;0.000;2024-03-02T07:09:47;99246.22;;;5.32;75.44
80648;BME280;70012;0.000;0.000;2024-03-02T07:12:14;99240.78;;;5.32;75.54
80648;BME280;70012;0.000;0.000;2024-03-02T07:14:41;99242.22;;;5.35;75.45
80648;BME280;70012;0.000;0.000;2024-03-02T07:17:31;99261.56;;;5.38;75.48
80648;BME280;70012;0.000;0.000;2024-03-02T07:19:58;99252.97;;;5.47;75.59
80648;BME280;70012;0.000;0.000;2024-03-02T07:22:25;99260.13;;;5.53;75.10
80648;BME280;70012;0.000;0.000;2024-03-02T07:24:52;99260.25;;;5.58;75.04
80648;BME280;70012;0.000;0.000;2024-03-02T07:27:19;99260.91;;;5.65;75.05
80648;BME280;70012;0.000;0.000;2024-03-02T07:29:46;99252.81;;;5.70;74.81
80648;BME280;70012;0.000;0.000;2024-03-02T07:32:13;99261.38;;;5.79;74.73
80648;BME280;70012;0.000;0.000;2024-03-02T07:34:39;99263.91;;;5.86;74.49
80648;BME280;70012;0.000;0.000;2024-03-02T07:37:06;99265.66;;;5.92;74.03
80648;BME280;70012;0.000;0.000;2024-03-02T07:39:33;99248.34;;;5.98;74.19
80648;BME280;70012;0.000;0.000;2024-03-02T07:42:00;99255.00;;;6.07;73.93
80648;BME280;70012;0.000;0.000;2024-03-02T07:44:27;99257.31;;;6.16;73.57
80648;BME280;70012;0.000;0.000;2024-03-02T07:46:55;99266.16;;;6.28;73.51
80648;BME280;70012;0.000;0.000;2024-03-02T07:49:22;99263.28;;;6.35;73.15
80648;BME280;70012;0.000;0.000;2024-03-02T07:51:50;99267.13;;;6.39;73.23
80648;BME280;70012;0.000;0.000;2024-03-02T07:54:17;99259.94;;;6.50;73.13
80648;BME280;70012;0.000;0.000;2024-03-02T07:56:45;99259.72;;;6.56;72.77
80648;BME280;70012;0.000;0.000;2024-03-02T07:59:11;99272.06;;;6.64;72.92
80648;BME280;70012;0.000;0.000;2024-03-02T08:01:38;99272.69;;;6.71;72.34
80648;BME280;70012;0.000;0.000;2024-03-02T08:04:06;99282.56;;;6.78;72.29
80648;BME280;70012;0.000;0.000;2024-03-02T08:06:33;99272.31;;;6.85;72.12
80648;BME280;70012;0.000;0.000;2024-03-02T08:09:00;99268.09;;;6.99;71.86
80648;BME280;70012;0.000;0.000;2024-03-02T08:11:27;99278.06;;;7.16;71.46
80648;BME280;70012;0.000;0.000;2024-03-02T08:13:55;99287.13;;;7.21;71.50
80648;BME280;70012;0.000;0.000;2024-03-02T08:16:23;99277.38;;;7.31;71.35
80648;BME280;70012;0.000;0.000;2024-03-02T08:18:52;99281.56;;;7.39;70.92
80648;BME280;70012;0.000;0.000;2024-03-02T08:21:20;99282.16;;;7.46;70.79
80648;BME280;70012;0.000;0.000;2024-03-02T08:23:47;99287.13;;;7.54;70.06
80648;BME280;70012;0.000;0.000;2024-03-02T08:26:14;99280.31;;;7.57;69.71
80648;BME280;70012;0.000;0.000;2024-03-02T08:28:40;99283.88;;;7.57;70.94
80648;BME280;70012;0.000;0.000;2024-03-02T08:31:07;99292.63;;;7.59;70.38
80648;BME280;70012;0.000;0.000;2024-03-02T08:33:34;99293.44;;;7.60;71.01
80648;BME280;70012;0.000;0.000;2024-03-02T08:36:04;99291.91;;;7.69;69.75
80648;BME280;70012;0.000;0.000;2024-03-02T08:38:31;99291.06;;;7.68;70.29
80648;BME280;70012;0.000;0.000;2024-03-02T08:40:59;99293.78;;;7.68;70.97
80648;BME280;70012;0.000;0.000;2024-03-02T08:43:26;99286.22;;;7.76;70.75
80648;BME280;70012;0.000;0.000;2024-03-02T08:45:54;99280.56;;;7.82;70.44
80648;BME280;70012;0.000;0.000;2024-03-02T08:48:21;99276.47;;;7.85;70.52
80648;BME280;70012;0.000;0.000;2024-03-02T08:50:48;99279.25;;;7.95;70.09
80648;BME280;70012;0.000;0.000;2024-03-02T08:53:15;99273.34;;;8.09;68.87
80648;BME280;70012;0.000;0.000;2024-03-02T08:55:46;99277.19;;;8.13;69.38
80648;BME280;70012;0.000;0.000;2024-03-02T08:58:13;99285.66;;;8.16;69.60
80648;BME280;70012;0.000;0.000;2024-03-02T09:00:40;99288.19;;;8.28;68.68
80648;BME280;70012;0.000;0.000;2024-03-02T09:03:08;99284.38;;;8.29;68.97
80648;BME280;70012;0.000;0.000;2024-03-02T09:05:36;99289.34;;;8.38;67.93
80648;BME280;70012;0.000;0.000;2024-03-02T09:08:04;99284.72;;;8.43;67.35
80648;BME280;70012;0.000;0.000;2024-03-02T09:10:32;99297.09;;;8.51;67.57
80648;BME280;70012;0.000;0.000;2024-03-02T09:12:59;99293.28;;;8.52;66.72
80648;BME280;70012;0.000;0.000;2024-03-02T09:15:26;99291.66;;;8.61;66.64
80648;BME280;70012;0.000;0.000;2024-03-02T09:17:54;99283.75;;;8.60;67.18
80648;BME280;70012;0.000;0.000;2024-03-02T09:20:21;99280.75;;;8.67;67.26
80648;BME280;70012;0.000;0.000;2024-03-02T09:22:50;99278.59;;;8.74;66.61
80648;BME280;70012;0.000;0.000;2024-03-02T09:25:17;99289.00;;;8.77;65.98
80648;BME280;70012;0.000;0.000;2024-03-02T09:27:45;99277.53;;;8.80;65.83
80648;BME280;70012;0.000;0.000;2024-03-02T09:30:13;99291.75;;;8.82;66.15
80648;BME280;70012;0.000;0.000;2024-03-02T09:32:41;99298.31;;;8.86;65.73
80648;BME280;70012;0.000;0.000;2024-03-02T09:35:08;99294.53;;;8.92;65.28
80648;BME280;70012;0.000;0.000;2024-03-02T09:37:36;99295.06;;;8.94;65.84
80648;BME280;70012;0.000;0.000;2024-03-02T09:40:04;99298.91;;;9.04;65.32
80648;BME280;70012;0.000;0.000;2024-03-02T09:42:32;99294.00;;;9.11;65.08
80648;BME280;70012;0.000;0.000;2024-03-02T09:45:00;99294.59;;;9.18;64.47
80648;BME280;70012;0.000;0.000;2024-03-02T09:47:27;99292.41;;;9.25;64.97
80648;BME280;70012;0.000;0.000;2024-03-02T09:49:54;99297.59;;;9.37;65.21
80648;BME280;70012;0.000;0.000;2024-03-02T09:52:25;99291.88;;;9.44;64.31
80648;BME280;70012;0.000;0.000;2024-03-02T09:54:52;99299.00;;;9.45;63.77
80648;BME280;70012;0.000;0.000;2024-03-02T09:57:20;99295.19;;;9.46;64.41
80648;BME280;70012;0.000;0.000;2024-03-02T09:59:47;99297.91;;;9.51;63.55
80648;BME280;70012;0.000;0.000;2024-03-02T10:02:13;99301.44;;;9.57;63.43
80648;BME280;70012;0.000;0.000;2024-03-02T10:04:43;99302.84;;;9.65;63.45
80648;BME280;70012;0.000;0.000;2024-03-02T10:07:16;99297.66;;;9.68;64.37
80648;BME280;70012;0.000;0.000;2024-03-02T10:09:47;99290.78;;;9.81;63.82
80648;BME280;70012;0.000;0.000;2024-03-02T10:12:18;99286.44;;;9.85;62.71
80648;BME280;70012;0.000;0.000;2024-03-02T10:14:45;99282.03;;;9.89;61.89
80648;BME280;70012;0.000;0.000;2024-03-02T10:17:17;99279.88;;;9.91;63.00
80648;BME280;70012;0.000;0.000;2024-03-02T10:19:44;99284.78;;;10.05;62.60
80648;BME280;70012;0.000;0.000;2024-03-02T10:22:11;99274.63;;;10.10;62.08
80648;BME280;70012;0.000;0.000;2024-03-02T10:24:42;99277.91;;;10.13;62.16
80648;BME280;70012;0.000;0.000;2024-03-02T10:27:22;99274.06;;;10.19;60.98
80648;BME280;70012;0.000;0.000;2024-03-02T10:29:58;99272.16;;;10.19;61.97
80648;BME280;70012;0.000;0.000;2024-03-02T10:32:26;99265.03;;;10.23;61.28
80648;BME280;70012;0.000;0.000;2024-03-02T10:34:54;99269.97;;;10.27;61.73
80648;BME280;70012;0.000;0.000;2024-03-02T10:37:21;99258.44;;;10.35;60.49
80648;BME280;70012;0.000;0.000;2024-03-02T10:39:48;99260.91;;;10.41;60.44
80648;BME280;70012;0.000;0.000;2024-03-02T10:42:15;99263.94;;;10.40;60.35
80648;BME280;70012;0.000;0.000;2024-03-02T10:44:46;99258.41;;;10.50;59.89
80648;BME280;70012;0.000;0.000;2024-03-02T10:47:13;99247.72;;;10.54;59.08
80648;BME280;70012;0.000;0.000;2024-03-02T10:49:42;99258.63;;;10.64;59.53
80648;BME280;70012;0.000;0.000;2024-03-02T10:52:12;99242.41;;;10.78;59.40
80648;BME280;70012;0.000;0.000;2024-03-02T10:54:39;99257.72;;;10.84;60.15
80648;BME280;70012;0.000;0.000;2024-03-02T10:57:09;99253.81;;;10.96;59.62
80648;BME280;70012;0.000;0.000;2024-03-02T10:59:48;99257.53;;;11.15;57.99
80648;BME280;70012;0.000;0.000;2024-03-02T11:02:21;99253.13;;;11.19;59.08
80648;BME280;70012;0.000;0.000;2024-03-02T11:04:49;99259.16;;;11.16;58.11
80648;BME280;70012;0.000;0.000;2024-03-02T11:07:21;99257.53;;;11.15;58.65
80648;BME280;70012;0.000;0.000;2024-03-02T11:10:00;99254.78;;;11.15;57.95
80648;BME280;70012;0.000;0.000;2024-03-02T11:12:48;99249.28;;;11.20;58.83
80648;BME280;70012;0.000;0.000;2024-03-02T11:15:18;99255.28;;;11.23;58.45
80648;BME280;70012;0.000;0.000;2024-03-02T11:17:46;99250.91;;;11.21;59.68
80648;BME280;70012;0.000;0.000;2024-03-02T11:20:15;99246.50;;;11.26;60.56
80648;BME280;70012;0.000;0.000;2024-03-02T11:22:42;99252.25;;;11.24;58.63
80648;BME280;70012;0.000;0.000;2024-03-02T11:25:24;99252.56;;;11.23;58.58
80648;BME280;70012;0.000;0.000;2024-03-02T11:33:08;99237.78;;;11.18;58.38
80648;BME280;70012;0.000;0.000;2024-03-02T11:35:43;99234.16;;;11.28;58.92
80648;BME280;70012;0.000;0.000;2024-03-02T11:38:18;99231.53;;;11.47;58.53
80648;BME280;70012;0.000;0.000;2024-03-02T11:40:45;99233.63;;;11.61;57.83
80648;BME280;70012;0.000;0.000;2024-03-02T11:43:12;99240.38;;;11.74;58.48
80648;BME280;70012;0.000;0.000;2024-03-02T11:45:41;99254.88;;;11.74;56.82
80648;BME280;70012;0.000;0.000;2024-03-02T11:48:14;99248.16;;;11.61;56.97
80648;BME280;70012;0.000;0.000;2024-03-02T11:50:50;99242.47;;;11.52;57.75
80648;BME280;70012;0.000;0.000;2024-03-02T11:53:18;99234.06;;;11.44;57.95
80648;BME280;70012;0.000;0.000;2024-03-02T11:55:45;99237.66;;;11.39;57.90
80648;BME280;70012;0.000;0.000;2024-03-02T11:58:18;99234.91;;;11.39;57.85
80648;BME280;70012;0.000;0.000;2024-03-02T12:00:50;99232.13;;;11.44;59.54
80648;BME280;70012;0.000;0.000;2024-03-02T12:03:17;99228.78;;;11.47;58.57
80648;BME280;70012;0.000;0.000;2024-03-02T12:05:48;99223.28;;;11.52;58.74
80648;BME280;70012;0.000;0.000;2024-03-02T12:08:16;99216.06;;;11.62;59.45
80648;BME280;70012;0.000;0.000;2024-03-02T12:10:43;99200.81;;;11.80;58.71
80648;BME280;70012;0.000;0.000;2024-03-02T12:13:22;99195.38;;;12.04;57.15
80648;BME280;70012;0.000;0.000;2024-03-02T12:15:53;99205.66;;;12.17;56.18
80648;BME280;70012;0.000;0.000;2024-03-02T12:18:21;99197.91;;;12.25;56.79
80648;BME280;70012;0.000;0.000;2024-03-02T12:20:50;99195.09;;;12.30;56.26
80648;BME280;70012;0.000;0.000;2024-03-02T12:23:24;99198.94;;;12.29;55.81
80648;BME280;70012;0.000;0.000;2024-03-02T12:25:51;99193.19;;;12.30;56.26
80648;BME280;70012;0.000;0.000;2024-03-02T12:28:19;99191.09;;;12.41;56.63
80648;BME280;70012;0.000;0.000;2024-03-02T12:30:46;99177.25;;;12.52;56.33
80648;BME280;70012;0.000;0.000;2024-03-02T12:33:14;99176.59;;;12.60;56.69
80648;BME280;70012;0.000;0.000;2024-03-02T12:35:41;99167.75;;;12.63;55.98
80648;BME280;70012;0.000;0.000;2024-03-02T12:38:10;99169.56;;;12.54;56.02
80648;BME280;70012;0.000;0.000;2024-03-02T12:40:37;99171.31;;;12.44;56.39
80648;BME280;70012;0.000;0.000;2024-03-02T12:43:05;99167.56;;;12.35;56.43
80648;BME280;70012;0.000;0.000;2024-03-02T12:45:34;99166.53;;;12.31;55.92
80648;BME280;70012;0.000;0.000;2024-03-02T12:48:01;99164.91;;;12.30;56.29
80648;BME280;70012;0.000;0.000;2024-03-02T12:50:29;99165.38;;;12.37;57.07
80648;BME280;70012;0.000;0.000;2024-03-02T12:52:55;99170.28;;;12.40;57.12
80648;BME280;70012;0.000;0.000;2024-03-02T12:55:23;99162.84;;;12.41;56.84
80648;BME280;70012;0.000;0.000;2024-03-02T12:57:52;99162.63;;;12.37;56.75
80648;BME280;70012;0.000;0.000;2024-03-02T13:00:20;99164.78;;;12.40;56.69
80648;BME280;70012;0.000;0.000;2024-03-02T13:02:47;99164.03;;;12.35;57.00
80648;BME280;70012;0.000;0.000;2024-03-02T13:05:18;99166.53;;;12.31;56.42
80648;BME280;70012;0.000;0.000;2024-03-02T13:07:51;99166.84;;;12.29;56.88
80648;BME280;70012;0.000;0.000;2024-03-02T13:10:20;99161.84;;;12.31;57.02
80648;BME280;70012;0.000;0.000;2024-03-02T13:12:47;99166.16;;;12.38;56.93
80648;BME280;70012;0.000;0.000;2024-03-02T13:15:15;99161.50;;;12.38;56.36
80648;BME280;70012;0.000;0.000;2024-03-02T13:17:47;99157.94;;;12.38;56.96
80648;BME280;70012;0.000;0.000;2024-03-02T13:20:15;99149.94;;;12.41;57.23
80648;BME280;70012;0.000;0.000;2024-03-02T13:22:46;99149.69;;;12.38;56.70
80648;BME280;70012;0.000;0.000;2024-03-02T13:25:13;99156.59;;;12.35;56.59
80648;BME280;70012;0.000;0.000;2024-03-02T13:27:41;99163.72;;;12.36;55.93
80648;BME280;70012;0.000;0.000;2024-03-02T13:30:10;99160.53;;;12.29;55.93
80648;BME280;70012;0.000;0.000;2024-03-02T13:32:37;99160.03;;;12.27;55.91
80648;BME280;70012;0.000;0.000;2024-03-02T13:35:04;99158.97;;;12.23;56.70